Walker, West Virginia
Current Conditions -  °F | °C
As of 9:53 AM on Monday 24 Nov 2014 (Local Time) from KPKB Reporting Station
Broken Clouds Broken Clouds  
Wind Chill: 67°   Ceiling: 6000
Heat Index: 67°   Visibility: 10mi
Dew Point: 48°   Wind: 16mph
Humidity: 51%   Direction: 210°SSW
Pressure: 29.48"   Gusts: 28mph
Location:  39.18°N, 81.38°W
Report Text: KPKB 241453Z 21014G24KT 10SM BKN060 BKN075 19/09 A2948 RMK AO2 PK WND 20031/1431 SLP978 T01940089 55002
Loading
Personal Weather Stations






























Interactive Weather Map New forecast layout! Learn more

10-Day Weather Forecast

Advertisements
Track Severe Weather on mobile